Latest Weather Observations for Creal Reef

IDQ60801

Issued at 6:02 pm EST Tuesday 28 February 2017 (issued every 30 minutes, with the page automatically refreshed every 10 minutes)

About weather observations | Map of weather stations | Latest weather observations for QLD | Other Formats
Station Details ID: 200736 Name: CREAL REEF Lat: -20.53 Lon: 150.38 Height: 1.7 m
Data from the previous 72 hours. | See also: Recent months for locations in Queensland
Date/Time
EST
Temp
°C
App
Temp
°C
Dew
Point
°C
Rel
Hum
%
Delta-T
°C
Wind Press
QNH
hPa
Press
MSL
hPa
Rain since
9am
mm
Dir  Spd
km/h
Gust
km/h
Spd
kts
Gust
kts
28/06:00pm 27.6 - - - - ESE 33 41 18 22 1011.1 - -
28/05:30pm 28.3 - - - - SE 37 44 20 24 1010.7 - -
28/05:20pm 28.4 - - - - SE 37 - 20 - - 1010.4 -
28/05:00pm 28.3 - - - - SE 37 41 20 22 1010.3 - -
28/04:30pm 28.3 - - - - SE 35 39 19 21 1010.2 - -
28/04:20pm 28.3 - - - - SE 33 - 18 - - 1010.1 -
28/04:00pm 28.2 - - - - SE 33 37 18 20 1010.1 - -
28/03:30pm 28.3 - - - - SE 30 35 16 19 1010.1 - -
28/03:20pm 28.2 - - - - SE 33 - 18 - - 1010.0 -
28/03:00pm 28.2 - - - - SE 33 41 18 22 1010.2 - -
28/02:30pm 28.2 - - - - SE 33 39 18 21 1010.4 - -
28/02:20pm 28.2 - - - - SE 32 - 17 - - 1010.3 -
28/02:00pm 28.2 - - - - SE 32 39 17 21 1010.6 - -
28/01:30pm 28.1 - - - - SE 32 37 17 20 1010.8 - -
28/01:20pm 28.1 - - - - SE 30 - 16 - - 1010.8 -
28/01:00pm 28.1 - - - - SE 32 35 17 19 1011.1 - -
28/12:30pm 28.2 - - - - SE 28 33 15 18 1011.3 - -
28/12:20pm 28.1 - - - - SE 30 - 16 - - 1011.4 -
28/12:00pm 28.1 - - - - ESE 30 35 16 19 1011.7 - -
28/11:30am 28.2 - - - - SE 30 33 16 18 1011.8 - -
28/11:20am 28.1 - - - - ESE 28 - 15 - - 1011.9 -
28/11:00am 28.3 - - - - ESE 30 35 16 19 1012.1 - -
28/10:30am 28.2 - - - - ESE 28 32 15 17 1012.0 - -
28/10:20am 28.1 - - - - ESE 28 - 15 - - 1011.9 -
28/10:00am 28.1 - - - - ESE 28 33 15 18 1012.0 - -
28/09:30am 28.1 - - - - ESE 30 33 16 18 1012.0 - -
28/09:20am 27.9 - - - - ESE 30 - 16 - - 1011.8 -
28/09:00am 27.9 - - - - ESE 32 35 17 19 1012.1 - -
28/08:30am 28.0 - - - - ESE 30 35 16 19 1011.9 - -
28/08:20am 28.2 - - - - ESE 30 - 16 - - 1011.7 -
28/08:00am 27.9 - - - - ESE 32 35 17 19 1011.8 - -
28/07:30am 28.1 - - - - ESE 32 39 17 21 1011.4 - -
28/07:20am 28.0 - - - - ESE 30 - 16 - - 1011.2 -
28/07:00am 28.0 - - - - ESE 33 37 18 20 1011.3 - -
28/06:30am 27.8 - - - - ESE 33 39 18 21 1011.2 - -
28/06:20am 27.9 - - - - ESE 33 - 18 - - 1011.0 -
28/06:00am 27.7 - - - - ESE 33 39 18 21 1010.9 - -
28/05:30am 27.8 - - - - ESE 35 41 19 22 1010.9 - -
28/05:20am 27.8 - - - - ESE 33 - 18 - - 1010.7 -
28/05:00am 27.6 - - - - ESE 33 39 18 21 1010.6 - -
28/04:30am 27.5 - - - - ESE 32 37 17 20 1010.4 - -
28/04:20am 27.8 - - - - ESE 35 - 19 - - 1010.2 -
28/04:00am 27.5 - - - - ESE 35 41 19 22 1010.3 - -
28/03:30am 27.6 - - - - ESE 35 39 19 21 1010.3 - -
28/03:20am 27.5 - - - - ESE 37 - 20 - - 1010.2 -
28/03:00am 27.7 - - - - ESE 37 43 20 23 1010.4 - -
28/02:30am 27.5 - - - - ESE 35 43 19 23 1010.5 - -
28/02:20am 27.8 - - - - ESE 33 - 18 - - 1010.5 -
28/02:00am 27.8 - - - - ESE 33 39 18 21 1010.8 - -
28/01:30am 27.7 - - - - ESE 33 37 18 20 1011.3 - -
28/01:20am 27.7 - - - - ESE 33 - 18 - - 1011.3 -
28/01:00am 27.6 - - - - ESE 35 41 19 22 1011.5 - -
28/12:30am 27.7 - - - - ESE 33 39 18 21 1011.9 - -
28/12:20am 27.9 - - - - ESE 35 - 19 - - 1011.8 -
28/12:00am 27.9 - - - - ESE 35 41 19 22 1012.1 - -
 
Date/Time
EST
Temp
°C
App
Temp
°C
Dew
Point
°C
Rel
Hum
%
Delta-T
°C
Wind Press
QNH
hPa
Press
MSL
hPa
Rain since
9am
mm
Dir  Spd
km/h
Gust
km/h
Spd
kts
Gust
kts
27/11:30pm 27.9 - - - - ESE 37 43 20 23 1012.3 - -
27/11:20pm 28.0 - - - - ESE 35 - 19 - - 1012.2 -
27/11:00pm 27.8 - - - - SE 37 44 20 24 1012.3 - -
27/10:30pm 28.2 - - - - ESE 35 41 19 22 1012.3 - -
27/10:20pm 27.9 - - - - SE 37 - 20 - - 1012.2 -
27/10:00pm 28.1 - - - - ESE 37 43 20 23 1012.2 - -
27/09:30pm 28.0 - - - - ESE 35 39 19 21 1012.0 - -
27/09:20pm 27.9 - - - - ESE 35 - 19 - - 1011.9 -
27/09:00pm 28.1 - - - - SE 35 41 19 22 1012.0 - -
27/08:30pm 28.0 - - - - ESE 33 39 18 21 1011.9 - -
27/08:20pm 27.9 - - - - SE 33 - 18 - - 1011.6 -
27/08:00pm 28.1 - - - - SE 35 41 19 22 1011.5 - -
27/07:30pm 28.1 - - - - SE 35 41 19 22 1011.3 - -
27/07:20pm 28.1 - - - - SE 35 - 19 - - 1011.2 -
27/07:00pm 27.8 - - - - SE 35 39 19 21 1011.0 - -
27/06:30pm 27.8 - - - - SE 33 39 18 21 1010.8 - -
27/06:20pm 27.8 - - - - SE 33 - 18 - - 1010.7 -
27/06:00pm 27.8 - - - - SE 33 39 18 21 1010.7 - -
27/05:30pm 27.5 - - - - SSE 33 39 18 21 1010.4 - -
27/05:20pm 27.5 - - - - SE 32 - 17 - - 1010.4 -
27/05:00pm 27.7 - - - - SSE 28 33 15 18 1010.5 - -
27/04:30pm 27.7 - - - - SSE 32 35 17 19 1010.1 - -
27/04:20pm 27.7 - - - - SE 33 - 18 - - 1010.1 -
27/04:00pm 27.7 - - - - SE 33 39 18 21 1010.1 - -
27/03:30pm 27.9 - - - - SE 37 43 20 23 1010.1 - -
27/03:20pm 27.7 - - - - SE 35 - 19 - - 1010.0 -
27/03:00pm 27.5 - - - - SSE 33 39 18 21 1010.3 - -
27/02:30pm 27.7 - - - - SE 33 41 18 22 1010.3 - -
27/02:20pm 28.0 - - - - SE 28 - 15 - - 1010.2 -
27/02:00pm 27.9 - - - - SE 32 35 17 19 1010.5 - -
27/01:30pm 27.6 - - - - SE 32 35 17 19 1010.7 - -
27/01:20pm 27.8 - - - - SE 33 - 18 - - 1010.7 -
27/01:00pm 27.6 - - - - SE 32 37 17 20 1011.0 - -
27/12:30pm 27.9 - - - - SE 28 33 15 18 1011.3 - -
27/12:20pm 27.9 - - - - SE 28 - 15 - - 1011.4 -
27/12:00pm 28.0 - - - - SE 28 33 15 18 1011.8 - -
27/11:30am 27.9 - - - - ESE 28 32 15 17 1011.9 - -
27/11:20am 27.8 - - - - SE 26 - 14 - - 1011.8 -
27/11:00am 28.1 - - - - SE 28 32 15 17 1012.1 - -
27/10:30am 28.0 - - - - SE 28 32 15 17 1012.3 - -
27/10:20am 28.0 - - - - ESE 28 - 15 - - 1012.3 -
27/10:00am 28.1 - - - - ESE 26 32 14 17 1012.2 - -
27/09:30am 27.6 - - - - ESE 22 30 12 16 1012.3 - -
27/09:20am 27.5 - - - - ESE 20 - 11 - - 1012.2 -
27/09:00am 27.5 - - - - ESE 24 30 13 16 1012.1 - -
27/08:30am 26.7 - - - - E 24 28 13 15 1012.1 - -
27/08:20am 26.5 - - - - E 28 - 15 - - 1012.0 -
27/08:00am 26.2 - - - - E 35 43 19 23 1012.0 - -
27/07:30am 27.4 - - - - SE 30 35 16 19 1011.7 - -
27/07:20am 27.2 - - - - SE 30 - 16 - - 1011.5 -
27/07:00am 26.8 - - - - SE 33 41 18 22 1011.5 - -
27/06:30am 27.4 - - - - SE 30 33 16 18 1011.2 - -
27/06:20am 27.4 - - - - SE 32 - 17 - - 1011.0 -
27/06:00am 27.4 - - - - SE 32 35 17 19 1010.9 - -
27/05:30am 27.5 - - - - SE 32 35 17 19 1010.8 - -
27/05:20am 27.4 - - - - SE 33 - 18 - - 1010.7 -
27/05:00am 27.5 - - - - ESE 32 35 17 19 1010.6 - -
27/04:30am 27.4 - - - - SE 32 35 17 19 1010.4 - -
27/04:20am 27.3 - - - - SE 33 - 18 - - 1010.4 -
27/04:00am 27.3 - - - - SE 33 39 18 21 1010.4 - -
27/03:30am 27.3 - - - - ESE 33 41 18 22 1010.1 - -
27/03:20am 27.5 - - - - ESE 33 - 18 - - 1010.1 -
27/03:00am 27.5 - - - - ESE 37 41 20 22 1010.3 - -
27/02:30am 27.7 - - - - ESE 35 41 19 22 1010.6 - -
27/02:20am 27.6 - - - - SE 33 - 18 - - 1010.5 -
27/02:00am 27.4 - - - - SE 41 48 22 26 1010.8 - -
27/01:30am 27.8 - - - - SE 37 43 20 23 1011.3 - -
27/01:20am 27.9 - - - - SE 35 - 19 - - 1011.2 -
27/01:00am 27.8 - - - - SE 35 41 19 22 1011.4 - -
27/12:30am 27.8 - - - - SE 37 43 20 23 1011.4 - -
27/12:20am 27.7 - - - - ESE 37 - 20 - - 1011.2 -
27/12:00am 27.8 - - - - ESE 37 41 20 22 1011.3 - -
 
Date/Time
EST
Temp
°C
App
Temp
°C
Dew
Point
°C
Rel
Hum
%
Delta-T
°C
Wind Press
QNH
hPa
Press
MSL
hPa
Rain since
9am
mm
Dir  Spd
km/h
Gust
km/h
Spd
kts
Gust
kts
26/11:30pm 27.8 - - - - ESE 37 43 20 23 1011.2 - -
26/11:20pm 27.9 - - - - ESE 39 - 21 - - 1011.2 -
26/11:00pm 28.0 - - - - ESE 35 43 19 23 1011.4 - -
26/10:30pm 27.8 - - - - SE 41 48 22 26 1011.6 - -
26/10:20pm 27.9 - - - - SE 39 - 21 - - 1011.5 -
26/10:00pm 28.2 - - - - SE 39 44 21 24 1011.6 - -
26/09:30pm 28.1 - - - - SE 39 44 21 24 1011.6 - -
26/09:20pm 28.1 - - - - SE 37 - 20 - - 1011.5 -
26/09:00pm 28.2 - - - - SE 41 46 22 25 1011.5 - -
26/08:30pm 27.9 - - - - SE 35 41 19 22 1011.3 - -
26/08:20pm 28.3 - - - - SE 39 - 21 - - 1011.1 -
26/08:00pm 28.0 - - - - SE 37 43 20 23 1010.9 - -
26/07:30pm 28.0 - - - - SE 39 44 21 24 1010.5 - -
26/07:20pm 28.0 - - - - SE 37 - 20 - - 1010.3 -
26/07:00pm 28.1 - - - - SE 35 41 19 22 1010.1 - -
26/06:30pm 28.0 - - - - SE 35 41 19 22 1009.8 - -
26/06:20pm 28.1 - - - - SE 35 - 19 - - 1009.7 -
26/06:00pm 28.1 - - - - SE 37 41 20 22 1009.7 - -
26/05:30pm 28.0 - - - - SE 35 41 19 22 1009.6 - -
26/05:20pm 28.1 - - - - SE 37 - 20 - - 1009.5 -
26/05:00pm 28.0 - - - - SE 35 41 19 22 1009.5 - -
26/04:30pm 28.0 - - - - SE 35 41 19 22 1009.5 - -
26/04:20pm 28.2 - - - - SE 35 - 19 - - 1009.5 -
26/04:00pm 28.3 - - - - SE 35 41 19 22 1009.7 - -
26/03:30pm 28.3 - - - - SSE 33 43 18 23 1009.5 - -
26/03:20pm 28.1 - - - - SSE 33 - 18 - - 1009.4 -
26/03:00pm 28.2 - - - - SSE 32 39 17 21 1009.5 - -
26/02:30pm 28.2 - - - - SSE 33 41 18 22 1009.6 - -
26/02:20pm 28.0 - - - - SSE 33 - 18 - - 1009.5 -
26/02:00pm 28.0 - - - - SE 32 37 17 20 1009.8 - -
26/01:30pm 28.0 - - - - SE 35 41 19 22 1009.9 - -
26/01:20pm 28.1 - - - - SE 35 - 19 - - 1010.0 -
26/01:00pm 28.1 - - - - SE 35 39 19 21 1010.2 - -
26/12:30pm 28.2 - - - - SE 32 35 17 19 1010.5 - -
26/12:20pm 28.1 - - - - SE 32 - 17 - - 1010.5 -
26/12:00pm 28.3 - - - - SE 33 41 18 22 1010.7 - -
26/11:30am 27.6 - - - - ESE 33 43 18 23 1010.9 - -
26/11:20am 27.8 - - - - ESE 35 - 19 - - 1011.0 -
26/11:00am 27.3 - - - - ESE 32 37 17 20 1011.4 - -
26/10:30am 28.2 - - - - SE 28 35 15 19 1011.5 - -
26/10:20am 28.1 - - - - SE 30 - 16 - - 1011.4 -
26/10:00am 28.1 - - - - ESE 28 32 15 17 1011.5 - -
26/09:30am 28.1 - - - - ESE 28 32 15 17 1011.6 - -
26/09:20am 28.0 - - - - ESE 28 - 15 - - 1011.4 -
26/09:00am 27.9 - - - - ESE 28 37 15 20 1011.4 - -
26/08:30am 28.1 - - - - SE 30 35 16 19 1011.1 - -
26/08:20am 28.0 - - - - SE 30 - 16 - - 1011.1 -
26/08:00am 28.2 - - - - SE 30 35 16 19 1011.1 - -
26/07:30am 27.9 - - - - SE 30 35 16 19 1010.8 - -
26/07:20am 27.7 - - - - SE 33 - 18 - - 1010.5 -
26/07:00am 27.8 - - - - SE 32 35 17 19 1010.4 - -
26/06:30am 27.6 - - - - SE 32 35 17 19 1010.0 - -
26/06:20am 27.5 - - - - SE 32 - 17 - - 1009.7 -
26/06:00am 27.6 - - - - SE 30 35 16 19 1009.6 - -
26/05:30am 27.7 - - - - ESE 30 35 16 19 1009.3 - -
26/05:20am 27.8 - - - - ESE 30 - 16 - - 1009.3 -
26/05:00am 27.8 - - - - ESE 30 33 16 18 1009.3 - -
26/04:30am 27.7 - - - - ESE 33 37 18 20 1009.3 - -
26/04:20am 27.6 - - - - ESE 35 - 19 - - 1009.2 -
26/04:00am 27.8 - - - - ESE 33 39 18 21 1009.1 - -
26/03:30am 27.8 - - - - SE 35 39 19 21 1009.0 - -
26/03:20am 27.7 - - - - ESE 35 - 19 - - 1009.1 -
26/03:00am 27.6 - - - - ESE 33 39 18 21 1009.1 - -
26/02:30am 27.8 - - - - SE 35 41 19 22 1009.1 - -
26/02:20am 27.5 - - - - SE 35 - 19 - - 1009.2 -
26/02:00am 27.7 - - - - ESE 35 41 19 22 1009.5 - -
26/01:30am 27.6 - - - - ESE 35 41 19 22 1009.8 - -
26/01:20am 27.5 - - - - ESE 35 - 19 - - 1009.7 -
26/01:00am 27.7 - - - - ESE 33 39 18 21 1009.9 - -
26/12:30am 27.6 - - - - ESE 37 43 20 23 1010.2 - -
26/12:20am 27.7 - - - - ESE 35 - 19 - - 1010.1 -
26/12:00am 27.5 - - - - ESE 32 35 17 19 1010.6 - -
 
Date/Time
EST
Temp
°C
App
Temp
°C
Dew
Point
°C
Rel
Hum
%
Delta-T
°C
Wind Press
QNH
hPa
Press
MSL
hPa
Rain since
9am
mm
Dir  Spd
km/h
Gust
km/h
Spd
kts
Gust
kts
25/11:30pm 27.1 - - - - ESE 35 44 19 24 1011.0 - -
25/11:20pm 27.2 - - - - ESE 41 - 22 - - 1010.9 -
25/11:00pm 28.0 - - - - ESE 39 46 21 25 1011.0 - -
25/10:30pm 27.6 - - - - ESE 35 43 19 23 1011.0 - -
25/10:20pm 27.6 - - - - ESE 39 - 21 - - 1010.7 -
25/10:00pm 28.0 - - - - SE 41 48 22 26 1010.9 - -
25/09:30pm 27.9 - - - - SE 41 46 22 25 1011.0 - -
25/09:20pm 28.2 - - - - SE 37 - 20 - - 1010.9 -
25/09:00pm 28.0 - - - - SE 35 43 19 23 1010.8 - -
25/08:30pm 27.1 - - - - SE 37 44 20 24 1010.6 - -
25/08:20pm 26.7 - - - - SE 41 - 22 - - 1010.5 -
25/08:00pm 27.3 - - - - ESE 37 56 20 30 1010.6 - -
25/07:51pm 27.3 - - - - SE 37 56 20 30 1010.6 - -
25/07:30pm 28.1 - - - - SE 35 41 19 22 1010.4 - -
25/07:20pm 27.9 - - - - SE 37 - 20 - - 1010.3 -
25/07:00pm 28.1 - - - - SE 35 41 19 22 1010.2 - -
25/06:30pm 27.8 - - - - SE 35 39 19 21 1010.2 - -
25/06:20pm 28.1 - - - - SE 35 - 19 - - 1010.0 -

Other Formats:

Comma delimited format used in spreadsheet applications
http://www.bom.gov.au/fwo/IDQ60801/IDQ60801.94371.axf

JavaScript Object Notation format (JSON) in row-major order
http://www.bom.gov.au/fwo/IDQ60801/IDQ60801.94371.json